Time;durP1;ratioP1;P1;durP2;ratioP2;P2;SDS_P1;SDS_P2;PMS_P1;PMS_P2;Temp;Humidity;BMP_temperature;BMP_pressure;BME280_temperature;BME280_humidity;BME280_pressure;Samples;Min_cycle;Max_cycle;Signal;HPM_P1;HPM_P2
2023/11/29 00:01:31;;;;;;;2.60;1.33;;;3.00;99.90;;;;;;3919206;30;20178;-91
2023/11/29 00:03:32;;;;;;;3.43;1.70;;;3.00;99.90;;;;;;3919340;30;20550;-92
2023/11/29 00:05:33;;;;;;;4.03;1.73;;;3.00;99.90;;;;;;3963755;29;20295;-90
2023/11/29 00:07:34;;;;;;;4.53;1.73;;;3.00;99.90;;;;;;3948816;30;20630;-91
2023/11/29 00:09:35;;;;;;;1.83;1.43;;;3.10;99.90;;;;;;3919133;30;20673;-92
2023/11/29 00:11:36;;;;;;;5.33;2.07;;;3.10;99.90;;;;;;3919407;30;20260;-91
2023/11/29 00:13:37;;;;;;;3.53;1.90;;;3.00;99.90;;;;;;3948770;30;20185;-91
2023/11/29 00:15:38;;;;;;;5.03;2.20;;;3.00;99.90;;;;;;3933806;30;20190;-93
2023/11/29 00:17:40;;;;;;;4.37;1.43;;;3.00;99.90;;;;;;3933689;30;20218;-91
2023/11/29 00:19:43;;;;;;;5.97;2.23;;;3.00;99.90;;;;;;3933724;30;20259;-91
2023/11/29 00:21:44;;;;;;;3.13;1.80;;;3.10;99.90;;;;;;3933807;30;20182;-90
2023/11/29 00:23:45;;;;;;;5.83;2.87;;;3.10;99.90;;;;;;3933843;30;20205;-91
2023/11/29 00:25:45;;;;;;;4.23;1.73;;;3.10;99.90;;;;;;3918925;30;20170;-90
2023/11/29 00:27:46;;;;;;;4.23;1.50;;;3.00;99.90;;;;;;3933640;30;20656;-90
2023/11/29 00:29:48;;;;;;;2.80;1.60;;;3.00;99.90;;;;;;3948216;30;20208;-89
2023/11/29 00:31:49;;;;;;;9.13;1.73;;;3.00;99.90;;;;;;3919008;30;20834;-91
2023/11/29 00:33:49;;;;;;;3.27;1.63;;;3.00;99.90;;;;;;3933799;30;20272;-91
2023/11/29 00:35:50;;;;;;;10.63;1.77;;;3.00;99.90;;;;;;3948400;30;20192;-90
2023/11/29 00:37:51;;;;;;;5.77;1.40;;;2.90;99.90;;;;;;3918948;30;20620;-90
2023/11/29 00:39:52;;;;;;;4.77;1.93;;;2.90;99.90;;;;;;3948285;30;20198;-91
2023/11/29 00:41:53;;;;;;;2.73;1.53;;;2.80;99.90;;;;;;3918915;30;20240;-91
2023/11/29 00:43:54;;;;;;;3.77;1.70;;;2.80;99.90;;;;;;3933500;30;20735;-90
2023/11/29 00:45:54;;;;;;;3.83;2.03;;;2.90;99.90;;;;;;3962851;29;20651;-90
2023/11/29 00:47:55;;;;;;;3.63;1.67;;;3.00;99.90;;;;;;3918872;30;20214;-91
2023/11/29 00:49:56;;;;;;;4.40;1.70;;;3.10;99.90;;;;;;3948021;30;20198;-91
2023/11/29 00:51:57;;;;;;;2.23;1.60;;;3.10;99.90;;;;;;3933350;30;20182;-90
2023/11/29 00:53:57;;;;;;;2.17;1.33;;;3.10;99.90;;;;;;3933249;30;20182;-91
2023/11/29 00:55:58;;;;;;;4.53;2.30;;;3.00;99.90;;;;;;3933281;30;20247;-91
2023/11/29 00:57:59;;;;;;;3.90;1.73;;;3.10;99.90;;;;;;3933257;30;20209;-90
2023/11/29 01:00:00;;;;;;;7.93;2.60;;;3.10;99.90;;;;;;3947826;30;20205;-91
2023/11/29 01:02:01;;;;;;;3.60;1.53;;;3.10;99.90;;;;;;3918624;30;20179;-91
2023/11/29 01:04:03;;;;;;;3.83;1.93;;;3.10;99.90;;;;;;3933205;30;20189;-91
2023/11/29 01:06:04;;;;;;;4.83;1.00;;;3.10;99.90;;;;;;3933177;30;20182;-90
2023/11/29 01:08:05;;;;;;;3.07;1.23;;;3.10;99.90;;;;;;3933044;30;20174;-90
2023/11/29 01:10:06;;;;;;;4.90;1.53;;;3.00;99.90;;;;;;3932972;30;20217;-90
2023/11/29 01:12:07;;;;;;;3.93;1.50;;;3.10;99.90;;;;;;3933124;30;20178;-90
2023/11/29 01:14:08;;;;;;;4.10;1.47;;;3.00;99.90;;;;;;3918767;30;20254;-90
2023/11/29 01:16:11;;;;;;;4.93;1.97;;;3.00;99.90;;;;;;3947816;30;20727;-90
2023/11/29 01:18:12;;;;;;;3.40;1.50;;;3.00;99.90;;;;;;3933223;30;20229;-92
2023/11/29 01:20:13;;;;;;;2.80;1.57;;;3.10;99.90;;;;;;3918472;30;20207;-90
2023/11/29 01:22:14;;;;;;;1.10;0.90;;;3.10;99.90;;;;;;3918679;30;20186;-91
2023/11/29 01:24:15;;;;;;;3.33;1.57;;;3.20;99.90;;;;;;3947777;30;20273;-90
2023/11/29 01:26:16;;;;;;;9.67;1.70;;;3.30;99.90;;;;;;3918537;30;20187;-90
2023/11/29 01:28:17;;;;;;;2.37;1.33;;;3.20;99.90;;;;;;3933131;30;20668;-91
2023/11/29 01:30:18;;;;;;;1.53;1.27;;;3.30;99.90;;;;;;3962192;30;20201;-92
2023/11/29 01:32:19;;;;;;;4.57;1.80;;;3.30;99.90;;;;;;3932942;30;20552;-92
2023/11/29 01:34:21;;;;;;;4.43;2.27;;;3.30;99.90;;;;;;3932908;30;20177;-91
2023/11/29 01:36:22;;;;;;;2.27;1.40;;;3.30;99.90;;;;;;3932798;30;20190;-90
2023/11/29 01:38:22;;;;;;;2.67;1.27;;;3.40;99.90;;;;;;3932637;30;20696;-90
2023/11/29 01:40:24;;;;;;;3.93;2.00;;;3.30;99.90;;;;;;3947350;30;20209;-90
2023/11/29 01:42:25;;;;;;;4.57;1.80;;;3.20;99.90;;;;;;3932703;30;20193;-90
2023/11/29 01:44:26;;;;;;;3.87;2.03;;;3.20;99.90;;;;;;3917920;30;20230;-89
2023/11/29 01:46:28;;;;;;;4.50;1.70;;;3.20;99.90;;;;;;3932569;30;20201;-90
2023/11/29 01:48:31;;;;;;;9.43;2.33;;;3.10;99.90;;;;;;3947245;30;20186;-91
2023/11/29 01:50:36;;;;;;;5.77;1.40;;;3.10;99.90;;;;;;3932585;30;20194;-90
2023/11/29 01:52:38;;;;;;;2.63;1.53;;;3.10;99.90;;;;;;3932491;30;20277;-90
2023/11/29 01:54:39;;;;;;;2.83;1.50;;;3.10;99.90;;;;;;3932560;30;20178;-90
2023/11/29 01:56:40;;;;;;;4.77;1.73;;;3.10;99.90;;;;;;3946749;30;20200;-91
2023/11/29 01:58:40;;;;;;;3.67;1.83;;;3.20;99.90;;;;;;3917742;30;20219;-92
2023/11/29 02:00:41;;;;;;;2.77;1.40;;;3.20;99.90;;;;;;3932464;30;20668;-90
2023/11/29 02:02:42;;;;;;;4.70;2.20;;;3.30;99.90;;;;;;3962214;30;20633;-90
2023/11/29 02:04:45;;;;;;;2.87;1.60;;;3.40;99.90;;;;;;3932401;30;20551;-91
2023/11/29 02:06:46;;;;;;;4.60;2.33;;;3.50;99.90;;;;;;3932751;30;20178;-90
2023/11/29 02:08:47;;;;;;;4.13;1.73;;;3.50;99.90;;;;;;3932348;30;20191;-90
2023/11/29 02:10:50;;;;;;;4.40;1.57;;;3.40;99.90;;;;;;3932396;30;20190;-91
2023/11/29 02:12:51;;;;;;;2.73;1.40;;;3.40;99.90;;;;;;3961884;30;20202;-91
2023/11/29 02:14:56;;;;;;;4.53;1.43;;;3.50;99.90;;;;;;3947163;30;20182;-91
2023/11/29 02:16:57;;;;;;;2.57;1.07;;;3.50;99.90;;;;;;3932348;30;20190;-91
2023/11/29 02:18:58;;;;;;;10.47;2.03;;;3.30;99.90;;;;;;3932111;30;20261;-90
2023/11/29 02:20:59;;;;;;;6.63;2.30;;;3.30;99.90;;;;;;3946924;30;20655;-91
2023/11/29 02:23:26;;;;;;;3.83;2.10;;;3.30;99.90;;;;;;3917916;30;20243;-92
2023/11/29 02:25:26;;;;;;;5.70;1.93;;;3.30;99.90;;;;;;3946950;30;20679;-91
2023/11/29 02:27:29;;;;;;;1.73;1.17;;;3.20;99.90;;;;;;3917725;30;20171;-92
2023/11/29 02:29:29;;;;;;;6.73;2.27;;;3.10;99.90;;;;;;3917861;30;20210;-93
2023/11/29 02:31:30;;;;;;;4.30;2.47;;;3.20;99.90;;;;;;3932259;30;20182;-91
2023/11/29 02:33:31;;;;;;;5.70;2.33;;;3.20;99.90;;;;;;3932244;30;20179;-90
2023/11/29 02:35:32;;;;;;;6.13;2.03;;;3.20;99.90;;;;;;3932133;30;20182;-91
2023/11/29 02:37:33;;;;;;;3.23;1.37;;;3.20;99.90;;;;;;3946708;30;20279;-91
2023/11/29 02:39:34;;;;;;;4.13;2.13;;;3.30;99.90;;;;;;3917625;30;20217;-89
2023/11/29 02:41:37;;;;;;;5.60;2.07;;;3.20;99.90;;;;;;3932102;30;20553;-90
2023/11/29 02:43:38;;;;;;;3.07;1.60;;;3.20;99.90;;;;;;3932185;30;20190;-92
2023/11/29 02:45:39;;;;;;;1.90;1.30;;;3.10;99.90;;;;;;3946552;30;20579;-92
2023/11/29 02:47:40;;;;;;;3.57;1.77;;;3.10;99.90;;;;;;3918064;30;20699;-91
2023/11/29 02:49:40;;;;;;;7.00;1.80;;;3.20;99.90;;;;;;3932146;30;20259;-90
2023/11/29 02:51:42;;;;;;;7.60;2.77;;;3.20;99.90;;;;;;3961830;29;20177;-91
2023/11/29 02:53:43;;;;;;;4.17;2.00;;;3.30;99.90;;;;;;3932285;30;20222;-91
2023/11/29 02:55:44;;;;;;;5.13;1.70;;;3.30;99.90;;;;;;3918113;30;20893;-90
2023/11/29 02:57:45;;;;;;;2.83;1.03;;;3.30;99.90;;;;;;3947140;30;20283;-91
2023/11/29 02:59:46;;;;;;;4.23;1.50;;;3.50;99.90;;;;;;3931968;30;20553;-91
2023/11/29 03:01:47;;;;;;;3.80;1.53;;;3.40;99.90;;;;;;3917823;30;20195;-92
2023/11/29 03:03:48;;;;;;;4.67;2.07;;;3.50;99.90;;;;;;3917518;30;20211;-91
2023/11/29 03:05:49;;;;;;;5.37;2.30;;;3.60;99.90;;;;;;3946722;30;20730;-92
2023/11/29 03:07:50;;;;;;;7.03;2.40;;;3.50;99.90;;;;;;3932190;30;20175;-91
2023/11/29 03:09:51;;;;;;;6.60;1.83;;;3.50;99.90;;;;;;3933742;30;20301;-90
2023/11/29 03:11:51;;;;;;;8.00;1.80;;;3.60;99.90;;;;;;3934865;30;20316;-90
2023/11/29 03:13:52;;;;;;;2.73;1.40;;;3.60;99.90;;;;;;3920114;30;20187;-91
2023/11/29 03:15:53;;;;;;;1.67;1.17;;;3.80;99.90;;;;;;3934702;30;20664;-91
2023/11/29 03:17:54;;;;;;;0.77;0.63;;;3.60;99.90;;;;;;3964146;30;20224;-91
2023/11/29 03:19:55;;;;;;;8.43;1.70;;;3.50;99.90;;;;;;3920215;30;20653;-90
2023/11/29 03:21:55;;;;;;;5.93;3.13;;;3.70;99.90;;;;;;3934373;30;20193;-91
2023/11/29 03:23:56;;;;;;;3.97;1.63;;;3.90;99.90;;;;;;3934657;30;20658;-91
2023/11/29 03:26:02;;;;;;;3.77;2.10;;;3.90;99.90;;;;;;3964204;30;20548;-91
2023/11/29 03:28:04;;;;;;;3.97;1.83;;;3.90;99.90;;;;;;3949168;30;20662;-91
2023/11/29 03:30:06;;;;;;;3.70;1.50;;;3.80;99.90;;;;;;3919705;30;20721;-91
2023/11/29 03:32:07;;;;;;;5.10;1.93;;;3.70;99.90;;;;;;3949191;30;20559;-90
2023/11/29 03:34:08;;;;;;;4.03;1.87;;;3.60;99.90;;;;;;3934369;30;20273;-90
2023/11/29 03:36:10;;;;;;;7.13;1.47;;;3.50;99.90;;;;;;3934404;30;20182;-92
2023/11/29 03:38:11;;;;;;;4.07;1.67;;;3.50;99.90;;;;;;3934191;30;20295;-91
2023/11/29 03:40:12;;;;;;;5.10;1.87;;;3.40;99.90;;;;;;3919846;30;20195;-90
2023/11/29 03:42:13;;;;;;;9.13;1.90;;;3.40;99.90;;;;;;3919909;30;20190;-90
2023/11/29 03:44:14;;;;;;;4.17;1.83;;;3.30;99.90;;;;;;3934260;30;20209;-90
2023/11/29 03:46:15;;;;;;;4.13;2.00;;;3.30;99.90;;;;;;3919430;30;20201;-90
2023/11/29 03:48:16;;;;;;;2.97;1.67;;;3.30;99.90;;;;;;3919676;30;20257;-91
2023/11/29 03:50:17;;;;;;;5.20;2.30;;;3.30;99.90;;;;;;3963365;30;20208;-91
2023/11/29 03:52:19;;;;;;;6.47;1.40;;;3.40;99.90;;;;;;3919563;30;20187;-91
2023/11/29 03:54:20;;;;;;;3.60;1.70;;;3.40;99.90;;;;;;3919655;30;20278;-91
2023/11/29 03:56:20;;;;;;;3.70;1.50;;;3.50;99.90;;;;;;3934164;30;20167;-90
2023/11/29 03:58:21;;;;;;;4.63;1.43;;;3.50;99.90;;;;;;3963554;29;20248;-90
2023/11/29 04:00:23;;;;;;;8.57;2.13;;;3.60;99.90;;;;;;3919438;30;20246;-92
2023/11/29 04:02:24;;;;;;;5.33;1.70;;;3.60;99.90;;;;;;3963554;30;20303;-92
2023/11/29 04:04:25;;;;;;;3.23;1.43;;;3.80;99.90;;;;;;3934115;30;20291;-90
2023/11/29 04:06:27;;;;;;;2.03;1.23;;;3.80;99.90;;;;;;3934097;30;20212;-91
2023/11/29 04:08:28;;;;;;;2.70;1.57;;;3.80;99.90;;;;;;3933668;30;20178;-92
2023/11/29 04:10:32;;;;;;;1.87;0.90;;;3.80;99.90;;;;;;3934160;30;20202;-91
2023/11/29 04:12:33;;;;;;;3.50;1.90;;;3.80;99.90;;;;;;3919549;30;20650;-91
2023/11/29 04:14:34;;;;;;;3.73;1.70;;;3.80;99.90;;;;;;3919270;30;20242;-91
2023/11/29 04:16:35;;;;;;;4.17;1.37;;;3.70;99.90;;;;;;3933945;30;20273;-89
2023/11/29 04:18:36;;;;;;;2.83;1.50;;;3.80;99.90;;;;;;3933540;30;20744;-92
2023/11/29 04:20:37;;;;;;;3.90;1.83;;;3.80;99.90;;;;;;3933487;30;20212;-91
2023/11/29 04:22:38;;;;;;;0.27;0.27;;;3.90;99.90;;;;;;3948462;30;20185;-91
2023/11/29 04:24:38;;;;;;;4.80;1.77;;;3.80;99.90;;;;;;3934027;30;20273;-91
2023/11/29 04:26:40;;;;;;;11.37;2.10;;;3.80;99.90;;;;;;3919373;30;20187;-92
2023/11/29 04:28:41;;;;;;;3.77;1.27;;;3.70;99.90;;;;;;3919327;30;20179;-92
2023/11/29 04:30:42;;;;;;;4.50;1.53;;;3.80;99.90;;;;;;3948438;30;20193;-94
2023/11/29 04:32:43;;;;;;;3.87;1.57;;;3.90;99.90;;;;;;3933980;30;20187;-92
2023/11/29 04:34:44;;;;;;;5.00;1.57;;;4.00;99.90;;;;;;3934176;30;20225;-92
2023/11/29 04:36:45;;;;;;;2.90;1.67;;;4.10;99.90;;;;;;3963394;30;20208;-92
2023/11/29 04:38:46;;;;;;;4.63;1.83;;;4.00;99.90;;;;;;3933415;30;20592;-91
2023/11/29 04:40:47;;;;;;;4.33;1.40;;;3.80;99.90;;;;;;3933324;30;20239;-92
2023/11/29 04:42:48;;;;;;;6.80;1.93;;;3.60;99.90;;;;;;3933606;30;20194;-93
2023/11/29 04:44:49;;;;;;;1.97;1.00;;;3.50;99.90;;;;;;3918774;30;20724;-92
2023/11/29 04:46:50;;;;;;;2.43;1.43;;;3.60;99.90;;;;;;3962873;30;20185;-93
2023/11/29 04:48:51;;;;;;;4.43;1.10;;;3.50;99.90;;;;;;3933333;30;20193;-92
2023/11/29 04:50:51;;;;;;;6.57;1.37;;;3.40;99.90;;;;;;3947996;30;20269;-92
2023/11/29 04:52:52;;;;;;;2.77;1.73;;;3.50;99.90;;;;;;3918867;30;20186;-93
2023/11/29 04:54:53;;;;;;;5.93;1.17;;;3.50;99.90;;;;;;3918795;30;20217;-92
2023/11/29 04:56:54;;;;;;;2.43;1.13;;;3.60;99.90;;;;;;3948155;30;20181;-92
2023/11/29 04:58:55;;;;;;;2.77;1.00;;;3.60;99.90;;;;;;3933336;30;20269;-92
2023/11/29 05:00:56;;;;;;;2.43;1.00;;;3.70;99.90;;;;;;3932994;30;20204;-92
2023/11/29 05:02:57;;;;;;;2.17;1.13;;;3.70;99.90;;;;;;3918741;30;20193;-92
2023/11/29 05:04:58;;;;;;;2.23;1.07;;;3.70;99.90;;;;;;3918617;30;20577;-92
2023/11/29 05:06:59;;;;;;;8.73;1.70;;;3.60;99.90;;;;;;3918587;30;20183;-93
2023/11/29 05:09:00;;;;;;;5.77;1.27;;;3.70;99.90;;;;;;3947957;30;20229;-94
2023/11/29 05:11:00;;;;;;;1.60;0.93;;;3.60;99.90;;;;;;3933093;30;20183;-92
2023/11/29 05:13:01;;;;;;;2.93;0.80;;;3.60;99.90;;;;;;3918502;30;20553;-92
2023/11/29 05:15:04;;;;;;;2.33;0.97;;;3.50;99.90;;;;;;3947746;30;20185;-92
2023/11/29 05:17:05;;;;;;;0.97;0.67;;;3.40;99.90;;;;;;3947769;30;20186;-92
2023/11/29 05:19:06;;;;;;;2.93;1.60;;;3.40;99.90;;;;;;3947650;30;20261;-92
2023/11/29 05:21:07;;;;;;;2.30;1.17;;;3.10;99.90;;;;;;3918432;30;20179;-92
2023/11/29 05:23:08;;;;;;;3.17;1.60;;;3.10;99.90;;;;;;3947669;30;20612;-92
2023/11/29 05:25:08;;;;;;;1.40;0.93;;;3.10;99.90;;;;;;3918446;30;20187;-92
2023/11/29 05:27:09;;;;;;;1.63;0.93;;;3.00;99.90;;;;;;3932961;30;20178;-93
2023/11/29 05:29:10;;;;;;;7.77;0.80;;;3.00;99.90;;;;;;3962108;30;20228;-92
2023/11/29 05:31:13;;;;;;;5.03;2.17;;;3.00;99.90;;;;;;3917877;30;20647;-91
2023/11/29 05:33:14;;;;;;;1.13;0.80;;;3.10;99.90;;;;;;3961960;29;20240;-93
2023/11/29 05:35:14;;;;;;;7.53;1.20;;;3.10;99.90;;;;;;3932857;30;20190;-93
2023/11/29 05:37:16;;;;;;;4.00;0.80;;;3.00;99.90;;;;;;3933311;30;20174;-92
2023/11/29 05:39:19;;;;;;;3.03;1.40;;;3.20;99.90;;;;;;3947125;30;20225;-90
2023/11/29 05:41:20;;;;;;;1.17;0.90;;;3.20;99.90;;;;;;3918136;30;20198;-91
2023/11/29 05:43:21;;;;;;;3.70;1.47;;;3.20;99.90;;;;;;3918214;30;20191;-91
2023/11/29 05:45:22;;;;;;;1.47;0.93;;;3.20;99.90;;;;;;3918164;30;20175;-91
2023/11/29 05:47:23;;;;;;;1.50;0.80;;;3.20;99.90;;;;;;3932683;30;20189;-93
2023/11/29 05:49:24;;;;;;;7.33;1.13;;;3.20;99.90;;;;;;3932770;30;20199;-92
2023/11/29 05:51:26;;;;;;;4.77;0.50;;;3.20;99.90;;;;;;3947427;30;20280;-92
2023/11/29 05:53:27;;;;;;;0.57;0.47;;;3.30;99.90;;;;;;3932519;30;20642;-92
2023/11/29 05:55:28;;;;;;;2.50;1.00;;;3.30;99.90;;;;;;3932638;30;20186;-92
2023/11/29 05:57:29;;;;;;;7.80;0.97;;;3.30;99.90;;;;;;3932767;30;20239;-92
2023/11/29 05:59:29;;;;;;;6.37;1.50;;;3.40;99.90;;;;;;3932844;30;20669;-93
2023/11/29 06:01:30;;;;;;;1.23;0.87;;;3.30;99.90;;;;;;3932650;30;20184;-93
2023/11/29 06:03:31;;;;;;;3.23;0.70;;;3.20;99.90;;;;;;3932718;30;20732;-91
2023/11/29 06:05:32;;;;;;;7.07;1.10;;;3.10;99.90;;;;;;3932648;30;20175;-91
2023/11/29 06:07:36;;;;;;;1.47;0.63;;;3.00;99.90;;;;;;3947476;30;20200;-93
2023/11/29 06:09:39;;;;;;;6.73;1.20;;;3.00;99.90;;;;;;3917967;30;20681;-93
2023/11/29 06:11:39;;;;;;;2.77;1.20;;;3.00;99.90;;;;;;3918080;30;20282;-92
2023/11/29 06:13:41;;;;;;;0.97;0.80;;;2.80;99.90;;;;;;3917731;30;20174;-93
2023/11/29 06:15:43;;;;;;;1.53;0.73;;;2.70;99.90;;;;;;3961661;29;20188;-93
2023/11/29 06:17:45;;;;;;;2.43;1.13;;;2.70;99.90;;;;;;3946874;30;20326;-92
2023/11/29 06:19:47;;;;;;;2.50;1.20;;;2.70;99.90;;;;;;3932103;30;20218;-91
2023/11/29 06:21:48;;;;;;;1.57;0.80;;;2.70;99.90;;;;;;3917965;30;20178;-91
2023/11/29 06:23:49;;;;;;;2.00;1.20;;;2.80;99.90;;;;;;3917691;30;20681;-93
2023/11/29 06:25:50;;;;;;;1.70;0.97;;;2.80;99.90;;;;;;3917842;30;20178;-91
2023/11/29 06:27:50;;;;;;;0.47;0.47;;;2.90;99.90;;;;;;3917855;30;20202;-93
2023/11/29 06:29:51;;;;;;;1.93;1.23;;;3.10;99.90;;;;;;3917738;30;20230;-92
2023/11/29 06:31:52;;;;;;;4.60;1.70;;;3.00;99.90;;;;;;3961504;30;20204;-90
2023/11/29 06:33:53;;;;;;;0.73;0.53;;;3.00;99.90;;;;;;3917945;30;20182;-93
2023/11/29 06:35:54;;;;;;;1.83;0.93;;;3.00;99.90;;;;;;3946573;29;20200;-94
2023/11/29 06:37:55;;;;;;;2.13;0.97;;;3.10;99.90;;;;;;3917200;30;20219;-92
2023/11/29 06:39:58;;;;;;;1.13;0.67;;;3.10;99.90;;;;;;3917881;30;20223;-93
2023/11/29 06:41:59;;;;;;;2.90;0.80;;;3.20;99.90;;;;;;3918484;30;20237;-93
2023/11/29 06:44:00;;;;;;;2.27;0.93;;;3.10;99.90;;;;;;3921364;30;20652;-93
2023/11/29 06:46:04;;;;;;;2.07;1.03;;;3.10;99.90;;;;;;3949761;30;20193;-93
2023/11/29 06:48:06;;;;;;;1.87;1.43;;;3.10;99.90;;;;;;3920781;30;20653;-93
2023/11/29 06:50:08;;;;;;;1.67;1.20;;;3.20;99.90;;;;;;3935554;30;20206;-93
2023/11/29 06:52:09;;;;;;;2.53;1.60;;;3.10;99.90;;;;;;3949591;30;20543;-92
2023/11/29 06:54:10;;;;;;;1.70;1.00;;;3.20;99.90;;;;;;3922101;30;20179;-94
2023/11/29 06:56:10;;;;;;;4.30;0.97;;;3.10;99.90;;;;;;3921311;30;20187;-94
2023/11/29 06:58:11;;;;;;;3.07;0.70;;;3.10;99.90;;;;;;3964375;30;20216;-94
2023/11/29 07:00:16;;;;;;;7.90;1.67;;;3.20;99.90;;;;;;3935860;30;20206;-93
2023/11/29 07:02:17;;;;;;;3.77;1.50;;;3.20;99.90;;;;;;3921126;30;20183;-93
2023/11/29 07:04:18;;;;;;;2.53;1.23;;;3.30;99.90;;;;;;3938676;30;20711;-93
2023/11/29 07:06:22;;;;;;;3.47;1.47;;;3.30;99.90;;;;;;3965396;29;20184;-93
2023/11/29 07:08:23;;;;;;;2.83;1.40;;;3.30;99.90;;;;;;3950069;30;20170;-93
2023/11/29 07:10:26;;;;;;;1.53;1.10;;;3.30;99.90;;;;;;3921422;30;20557;-93
2023/11/29 07:12:28;;;;;;;1.90;1.17;;;3.30;99.90;;;;;;3921968;30;20274;-94
2023/11/29 07:14:29;;;;;;;1.30;0.90;;;3.20;99.90;;;;;;3920990;30;20190;-93
2023/11/29 07:16:30;;;;;;;2.87;1.47;;;3.20;99.90;;;;;;3934747;30;20178;-93
2023/11/29 07:18:30;;;;;;;2.53;0.97;;;3.10;99.90;;;;;;3921325;30;20279;-94
2023/11/29 07:20:31;;;;;;;3.50;2.03;;;3.10;99.90;;;;;;3920557;30;20215;-94
2023/11/29 07:22:34;;;;;;;3.97;1.70;;;3.20;99.90;;;;;;3934781;30;20594;-93
2023/11/29 07:24:35;;;;;;;8.10;1.00;;;3.30;99.90;;;;;;3935016;30;20190;-94
2023/11/29 07:26:36;;;;;;;4.40;1.80;;;3.20;99.90;;;;;;3934550;30;20185;-94
2023/11/29 07:28:37;;;;;;;8.63;3.20;;;3.20;99.90;;;;;;3950002;30;20178;-92
2023/11/29 07:30:38;;;;;;;1.80;0.93;;;3.20;99.90;;;;;;3905881;30;20692;-93
2023/11/29 07:32:39;;;;;;;7.20;2.47;;;3.30;99.90;;;;;;3935758;30;20186;-94
2023/11/29 07:34:44;;;;;;;8.33;4.73;;;3.10;99.90;;;;;;3949310;30;20182;-93
2023/11/29 07:36:51;;;;;;;8.73;3.93;;;3.20;99.90;;;;;;3920004;30;20187;-93
2023/11/29 07:38:52;;;;;;;3.13;2.03;;;3.20;99.90;;;;;;3920546;30;20294;-93
2023/11/29 07:40:53;;;;;;;3.93;1.67;;;3.20;99.90;;;;;;3919963;30;20183;-93
2023/11/29 07:42:54;;;;;;;8.70;3.03;;;3.30;99.90;;;;;;3920786;30;20183;-93
2023/11/29 07:44:55;;;;;;;2.73;1.87;;;3.30;99.90;;;;;;3949887;30;20186;-92
2023/11/29 07:46:56;;;;;;;2.57;1.80;;;3.20;99.90;;;;;;3935403;30;20183;-93
2023/11/29 07:48:57;;;;;;;33.57;14.80;;;3.30;99.90;;;;;;3949489;30;20227;-94
2023/11/29 07:50:59;;;;;;;30.80;14.77;;;3.40;99.90;;;;;;3920120;30;20236;-92
2023/11/29 07:53:02;;;;;;;11.13;6.40;;;3.40;99.90;;;;;;3948886;30;20332;-93
2023/11/29 07:55:03;;;;;;;19.30;9.43;;;3.40;99.90;;;;;;3933637;30;20518;-93
2023/11/29 07:57:04;;;;;;;12.37;5.63;;;3.50;99.90;;;;;;3949193;30;20193;-92
2023/11/29 07:59:05;;;;;;;10.40;4.23;;;3.60;99.90;;;;;;3919352;30;20306;-93
2023/11/29 08:01:06;;;;;;;6.57;2.53;;;3.60;99.90;;;;;;3934309;30;20186;-93
2023/11/29 08:03:07;;;;;;;8.43;3.70;;;3.70;99.90;;;;;;3948919;30;20563;-93
2023/11/29 08:05:08;;;;;;;2.10;1.33;;;3.90;99.90;;;;;;3920170;30;20250;-93
2023/11/29 08:07:09;;;;;;;5.13;1.10;;;3.90;99.90;;;;;;3919277;30;20270;-93
2023/11/29 08:09:10;;;;;;;2.43;0.93;;;4.20;99.90;;;;;;3933726;30;20209;-93
2023/11/29 08:11:11;;;;;;;1.90;1.13;;;4.40;99.90;;;;;;3963449;29;20256;-94
2023/11/29 08:13:12;;;;;;;3.97;1.40;;;4.40;99.90;;;;;;3934380;30;20179;-92
2023/11/29 08:15:13;;;;;;;2.17;1.27;;;4.50;99.90;;;;;;3933908;30;20620;-94
2023/11/29 08:17:14;;;;;;;3.40;1.80;;;4.50;99.90;;;;;;3919281;30;20194;-92
2023/11/29 08:19:14;;;;;;;5.67;1.90;;;4.50;99.90;;;;;;3963174;29;20217;-94
2023/11/29 08:21:21;;;;;;;3.83;1.33;;;4.70;99.90;;;;;;3949750;30;20209;-93
2023/11/29 08:23:22;;;;;;;3.43;1.57;;;5.00;99.90;;;;;;3934674;30;20174;-93
2023/11/29 08:25:25;;;;;;;4.17;1.63;;;4.90;99.90;;;;;;3933735;30;20606;-93
2023/11/29 08:27:26;;;;;;;6.60;2.57;;;5.00;99.90;;;;;;3919301;30;20180;-92
2023/11/29 08:29:27;;;;;;;3.57;1.80;;;4.70;99.90;;;;;;3919001;30;20686;-94
2023/11/29 08:31:28;;;;;;;5.83;1.80;;;4.70;99.90;;;;;;3919447;30;20190;-93
2023/11/29 08:33:30;;;;;;;4.33;1.37;;;5.00;99.90;;;;;;3948530;30;20219;-93
2023/11/29 08:35:30;;;;;;;5.10;1.47;;;5.20;99.90;;;;;;3948811;30;20652;-93
2023/11/29 08:37:31;;;;;;;3.20;1.50;;;5.30;99.90;;;;;;3933952;30;20256;-93
2023/11/29 08:39:32;;;;;;;4.20;2.20;;;5.40;99.90;;;;;;3919246;30;20376;-93
2023/11/29 08:41:33;;;;;;;2.37;1.70;;;5.30;99.90;;;;;;3963576;30;20264;-93
2023/11/29 08:43:34;;;;;;;6.23;2.37;;;5.30;99.90;;;;;;3919232;30;20221;-93
2023/11/29 08:45:35;;;;;;;1.97;1.67;;;5.30;99.90;;;;;;3919022;30;20215;-93
2023/11/29 08:47:36;;;;;;;2.67;1.93;;;5.10;99.90;;;;;;3933487;30;20182;-94
2023/11/29 08:49:37;;;;;;;2.57;1.50;;;4.90;99.90;;;;;;3963182;29;20205;-95
2023/11/29 08:51:37;;;;;;;2.53;1.30;;;5.00;99.90;;;;;;3934234;30;20184;-95
2023/11/29 08:53:42;;;;;;;8.87;2.07;;;5.20;99.90;;;;;;3933881;30;20182;-93
2023/11/29 08:55:44;;;;;;;4.53;1.30;;;5.10;99.90;;;;;;3933651;30;20277;-94
2023/11/29 08:57:45;;;;;;;6.17;3.30;;;5.20;99.90;;;;;;3919461;30;20218;-92
2023/11/29 08:59:46;;;;;;;2.53;1.20;;;5.20;99.90;;;;;;3948272;30;20224;-92
2023/11/29 09:01:47;;;;;;;2.77;1.30;;;5.50;99.90;;;;;;3918871;30;20278;-93
2023/11/29 09:03:48;;;;;;;6.73;1.63;;;5.40;99.90;;;;;;3919004;30;20666;-93
2023/11/29 09:05:50;;;;;;;2.73;1.20;;;5.90;99.90;;;;;;3918931;30;20191;-92
2023/11/29 09:07:51;;;;;;;3.60;1.27;;;6.10;99.90;;;;;;3934151;30;20239;-93
2023/11/29 09:09:55;;;;;;;4.10;1.53;;;6.20;99.90;;;;;;3933354;30;20292;-93
2023/11/29 09:11:55;;;;;;;3.03;1.80;;;6.10;99.90;;;;;;3918769;30;20185;-94
2023/11/29 09:13:56;;;;;;;2.03;0.90;;;6.50;99.90;;;;;;3919124;30;21057;-92
2023/11/29 09:15:57;;;;;;;2.75;1.15;;;6.50;99.90;;;;;;3962411;29;20654;-93
2023/11/29 09:17:59;;;;;;;2.05;1.27;;;6.80;99.90;;;;;;3932861;30;20221;-94
2023/11/29 09:20:00;;;;;;;2.97;1.40;;;6.90;99.90;;;;;;3933588;30;20199;-92
2023/11/29 09:22:05;;;;;;;3.05;1.30;;;6.90;99.90;;;;;;3933188;30;20591;-93
2023/11/29 09:24:06;;;;;;;4.47;1.63;;;6.50;99.90;;;;;;3933121;30;20719;-93
2023/11/29 09:26:07;;;;;;;3.25;1.13;;;6.40;99.90;;;;;;3932829;30;20179;-92
2023/11/29 09:28:13;;;;;;;3.42;1.00;;;6.40;99.90;;;;;;3918180;30;20186;-93
2023/11/29 09:30:15;;;;;;;1.80;0.90;;;6.40;99.90;;;;;;3918480;30;20246;-92
2023/11/29 09:32:15;;;;;;;3.33;1.23;;;6.10;99.90;;;;;;3947847;30;20185;-93
2023/11/29 09:34:16;;;;;;;3.20;0.80;;;5.90;99.90;;;;;;3933118;30;20678;-92
2023/11/29 09:36:18;;;;;;;1.47;1.10;;;5.60;99.90;;;;;;3932713;30;20243;-93
2023/11/29 09:38:19;;;;;;;2.13;0.98;;;5.50;99.90;;;;;;3932278;30;20225;-93
2023/11/29 09:40:20;;;;;;;8.82;1.65;;;5.40;99.90;;;;;;3918069;30;20372;-93
2023/11/29 09:42:22;;;;;;;0.97;0.67;;;5.60;99.90;;;;;;3918396;30;20194;-92
2023/11/29 09:44:26;;;;;;;2.93;1.17;;;5.80;99.90;;;;;;3933105;30;20186;-93
2023/11/29 09:46:27;;;;;;;1.90;1.10;;;5.90;99.90;;;;;;3932885;30;20183;-93
2023/11/29 09:48:28;;;;;;;2.20;0.97;;;5.90;99.90;;;;;;3932631;30;20186;-93
2023/11/29 09:50:31;;;;;;;1.40;0.70;;;5.80;99.90;;;;;;3947350;30;20250;-93
2023/11/29 09:52:32;;;;;;;2.27;0.93;;;5.70;99.90;;;;;;3932749;30;20219;-92
2023/11/29 09:54:33;;;;;;;2.07;0.97;;;5.70;99.90;;;;;;3932867;30;20183;-93
2023/11/29 09:56:34;;;;;;;2.87;1.00;;;5.70;99.90;;;;;;3918246;30;20187;-93
2023/11/29 09:58:38;;;;;;;1.17;0.73;;;5.80;99.90;;;;;;3918678;30;20273;-94
2023/11/29 10:00:39;;;;;;;5.27;1.83;;;6.00;99.90;;;;;;3918165;30;20227;-93
2023/11/29 10:02:41;;;;;;;2.57;1.30;;;6.10;99.90;;;;;;3932786;30;20239;-93
2023/11/29 10:04:42;;;;;;;3.87;1.50;;;6.20;99.90;;;;;;3932724;30;20274;-93
2023/11/29 10:06:44;;;;;;;3.47;1.30;;;6.20;99.90;;;;;;3947364;30;20231;-93
2023/11/29 10:08:44;;;;;;;2.00;1.10;;;6.20;99.90;;;;;;3947337;30;20177;-92
2023/11/29 10:10:46;;;;;;;2.60;1.00;;;6.10;99.90;;;;;;3917839;30;20802;-94
2023/11/29 10:12:47;;;;;;;2.53;1.10;;;6.10;99.90;;;;;;3947244;30;20178;-92
2023/11/29 10:14:48;;;;;;;4.53;1.30;;;6.20;99.90;;;;;;3932940;30;20311;-93
2023/11/29 10:16:49;;;;;;;3.50;1.07;;;6.30;99.90;;;;;;3918034;30;20282;-92
2023/11/29 10:18:50;;;;;;;2.67;1.63;;;6.10;99.90;;;;;;3946585;30;20720;-92
2023/11/29 10:20:52;;;;;;;2.58;1.60;;;6.00;99.90;;;;;;3917964;30;20238;-93
2023/11/29 10:22:53;;;;;;;2.70;1.30;;;6.20;99.90;;;;;;3932188;30;20190;-92
2023/11/29 10:24:54;;;;;;;2.20;0.70;;;6.10;99.90;;;;;;3917739;30;20183;-93
2023/11/29 10:26:55;;;;;;;3.13;0.93;;;6.10;99.90;;;;;;3918023;30;20186;-93
2023/11/29 10:28:56;;;;;;;1.23;0.80;;;6.30;99.90;;;;;;3932138;30;20237;-93
2023/11/29 10:30:57;;;;;;;1.77;1.20;;;6.50;99.90;;;;;;3946917;30;20190;-92
2023/11/29 10:32:59;;;;;;;2.53;1.00;;;6.50;99.90;;;;;;3917901;30;20189;-92
2023/11/29 10:35:02;;;;;;;2.10;1.17;;;6.50;99.90;;;;;;3947012;30;20185;-93
2023/11/29 10:37:05;;;;;;;1.75;1.30;;;6.70;99.90;;;;;;3917804;30;20661;-94
2023/11/29 10:39:12;;;;;;;6.97;2.75;;;6.80;99.90;;;;;;3946978;30;20572;-93
2023/11/29 10:41:15;;;;;;;4.15;1.85;;;7.10;99.90;;;;;;3932236;30;20186;-92